KSPD

Comanche National Grassland Airport

Springfield, Colorado, USA
METAR KSPD 151856Z AUTO 15006KT M03/M05 A2980 RMK AO1 SLP108 T10331050
Observed Flight Rules
Feb-15 @ 18:56 UTC (an hour ago)
Wind
150° at 6 knots
Temperatures Readings
Current -3°C / 27°F
Dewpoint -5°C / 23°F
Humidity 86%
Altimeter 29.8" Hg
Pressure 1010.8 hPa
Elevation 1335
METAR KSPD 151856Z AUTO 15006KT M03/M05 A2980 RMK AO1 SLP108 T10331050
Observed Flight Rules
Feb-15 @ 18:56 UTC
(an hour ago)
Wind
150° at 6 knots
Temperature Dewpoint
-3°C / 27°F -5°C / 23°F
Humidity Altimeter Pressure
86% 29.8" Hg 1010.8 hPa